Time,TemperatureF,DewpointF,PressureIn,WindDirection,WindDirectionDegrees,WindSpeedMPH,WindSpeedGustMPH,Humidity,HourlyPrecipIn,Conditions,Clouds,dailyrainin,SoftwareType,DateUTC
2013-07-13 00:05:00,60.4,49.8,29.88,WSW,243,0.0,0.0,68,0.00,,,0.00,Wunderground v.1.15,2013-07-13 07:05:00,
2013-07-13 00:10:00,60.5,49.5,29.87,WSW,243,0.0,0.0,67,0.00,,,0.00,Wunderground v.1.15,2013-07-13 07:10:00,
2013-07-13 00:20:00,60.5,49.5,29.87,WSW,243,0.0,0.0,67,0.00,,,0.00,Wunderground v.1.15,2013-07-13 07:20:00,
2013-07-13 00:25:00,60.5,49.9,29.87,WSW,243,0.0,0.0,68,0.00,,,0.00,Wunderground v.1.15,2013-07-13 07:25:00,
2013-07-13 00:35:00,60.0,49.4,29.87,WSW,243,0.0,0.0,68,0.00,,,0.00,Wunderground v.1.15,2013-07-13 07:35:00,
2013-07-13 00:40:00,60.0,49.4,29.87,WSW,243,0.0,0.0,68,0.00,,,0.00,Wunderground v.1.15,2013-07-13 07:40:00,
2013-07-13 00:50:00,59.4,48.8,29.87,WSW,243,0.0,0.0,68,0.00,,,0.00,Wunderground v.1.15,2013-07-13 07:50:00,
2013-07-13 00:55:00,59.3,49.1,29.87,WSW,243,0.0,0.0,69,0.00,,,0.00,Wunderground v.1.15,2013-07-13 07:55:00,
2013-07-13 01:05:00,59.1,48.5,29.87,WSW,243,0.0,1.0,68,0.00,,,0.00,Wunderground v.1.15,2013-07-13 08:05:00,
2013-07-13 01:14:00,58.7,50.1,29.87,WSW,245,0.0,0.0,73,0.00,,,0.00,Wunderground v.1.15,2013-07-13 08:14:00,
2013-07-13 01:20:00,58.7,50.1,29.87,WSW,245,0.0,0.0,73,0.00,,,0.00,Wunderground v.1.15,2013-07-13 08:20:00,
2013-07-13 01:29:00,59.0,50.7,29.87,West,263,0.0,0.0,74,0.00,,,0.00,Wunderground v.1.15,2013-07-13 08:29:00,
2013-07-13 01:35:00,59.0,50.7,29.87,West,263,0.0,0.0,74,0.00,,,0.00,Wunderground v.1.15,2013-07-13 08:35:00,
2013-07-13 01:40:00,59.1,50.8,29.87,West,263,0.0,0.0,74,0.00,,,0.00,Wunderground v.1.15,2013-07-13 08:40:00,
2013-07-13 01:45:00,59.0,50.7,29.87,West,263,0.0,0.0,74,0.00,,,0.00,Wunderground v.1.15,2013-07-13 08:45:00,
2013-07-13 01:54:00,58.9,51.0,29.87,West,263,0.0,0.0,75,0.00,,,0.00,Wunderground v.1.15,2013-07-13 08:54:00,
2013-07-13 02:00:00,59.2,51.3,29.87,SSW,206,0.0,3.0,75,0.00,,,0.00,Wunderground v.1.15,2013-07-13 09:00:00,
2013-07-13 02:05:00,59.5,51.6,29.87,SSW,192,0.0,3.0,75,0.00,,,0.00,Wunderground v.1.15,2013-07-13 09:05:00,
2013-07-13 02:14:00,60.5,51.8,29.87,SSW,211,4.0,6.0,73,0.00,,,0.00,Wunderground v.1.15,2013-07-13 09:14:00,
2013-07-13 02:24:00,60.5,51.8,29.87,SSW,192,3.0,3.0,73,0.00,,,0.00,Wunderground v.1.15,2013-07-13 09:24:00,
2013-07-13 02:30:00,60.4,52.1,29.87,SSW,194,3.0,3.0,74,0.00,,,0.00,Wunderground v.1.15,2013-07-13 09:30:00,
2013-07-13 02:39:00,60.0,51.3,29.87,SSW,194,0.0,0.0,73,0.00,,,0.00,Wunderground v.1.15,2013-07-13 09:39:00,
2013-07-13 02:45:00,59.5,51.2,29.87,SSW,194,0.0,0.0,74,0.00,,,0.00,Wunderground v.1.15,2013-07-13 09:45:00,
2013-07-13 02:50:00,59.1,50.8,29.87,SSW,194,0.0,0.0,74,0.00,,,0.00,Wunderground v.1.15,2013-07-13 09:50:00,
2013-07-13 03:00:00,58.3,50.4,29.87,SSW,194,0.0,0.0,75,0.00,,,0.00,Wunderground v.1.15,2013-07-13 10:00:00,
2013-07-13 03:10:00,57.3,49.8,29.87,SSW,194,0.0,0.0,76,0.00,,,0.00,Wunderground v.1.15,2013-07-13 10:10:00,
2013-07-13 03:20:00,56.5,50.1,29.87,SSW,194,0.0,0.0,79,0.00,,,0.00,Wunderground v.1.15,2013-07-13 10:20:00,
2013-07-13 03:25:00,56.1,49.7,29.87,SSW,194,0.0,0.0,79,0.00,,,0.00,Wunderground v.1.15,2013-07-13 10:25:00,
2013-07-13 03:35:00,55.7,50.0,29.87,SSW,194,0.0,0.0,81,0.00,,,0.00,Wunderground v.1.15,2013-07-13 10:35:00,
2013-07-13 03:44:00,55.5,50.1,29.87,SSW,194,0.0,0.0,82,0.00,,,0.00,Wunderground v.1.15,2013-07-13 10:44:00,
2013-07-13 03:50:00,55.4,50.3,29.87,SSW,194,0.0,0.0,83,0.00,,,0.00,Wunderground v.1.15,2013-07-13 10:50:00,
2013-07-13 03:55:00,55.3,50.2,29.87,SSW,194,0.0,0.0,83,0.00,,,0.00,Wunderground v.1.15,2013-07-13 10:55:00,
2013-07-13 04:05:00,54.9,50.2,29.87,SSW,194,0.0,0.0,84,0.00,,,0.00,Wunderground v.1.15,2013-07-13 11:05:00,
2013-07-13 04:15:00,54.8,50.7,29.87,SSW,194,0.0,0.0,86,0.00,,,0.00,Wunderground v.1.15,2013-07-13 11:15:00,
2013-07-13 04:25:00,55.5,51.1,29.87,SSW,194,0.0,0.0,85,0.00,,,0.00,Wunderground v.1.15,2013-07-13 11:25:00,
2013-07-13 04:30:00,55.5,51.1,29.87,SSW,194,0.0,0.0,85,0.00,,,0.00,Wunderground v.1.15,2013-07-13 11:30:00,
2013-07-13 04:35:00,55.3,50.5,29.87,SSW,194,0.0,0.0,84,0.00,,,0.00,Wunderground v.1.15,2013-07-13 11:35:00,
2013-07-13 04:44:00,55.4,51.3,29.87,SSW,194,0.0,0.0,86,0.00,,,0.00,Wunderground v.1.15,2013-07-13 11:44:00,
2013-07-13 04:50:00,55.5,51.1,29.87,ESE,106,0.0,0.0,85,0.00,,,0.00,Wunderground v.1.15,2013-07-13 11:50:00,
2013-07-13 04:55:00,55.6,51.2,29.87,ESE,104,0.0,1.0,85,0.00,,,0.00,Wunderground v.1.15,2013-07-13 11:55:00,
2013-07-13 05:00:00,55.6,51.2,29.87,ESE,103,0.0,0.0,85,0.00,,,0.00,Wunderground v.1.15,2013-07-13 12:00:00,
2013-07-13 05:10:00,55.7,51.3,29.87,East,96,0.0,0.0,85,0.00,,,0.00,Wunderground v.1.15,2013-07-13 12:10:00,
2013-07-13 05:20:00,55.6,51.2,29.87,East,96,0.0,0.0,85,0.00,,,0.00,Wunderground v.1.15,2013-07-13 12:20:00,
2013-07-13 05:30:00,55.3,51.2,29.88,East,96,0.0,0.0,86,0.00,,,0.00,Wunderground v.1.15,2013-07-13 12:30:00,
2013-07-13 05:35:00,55.6,51.5,29.88,East,96,0.0,0.0,86,0.00,,,0.00,Wunderground v.1.15,2013-07-13 12:35:00,
2013-07-13 05:44:00,55.7,51.6,29.88,East,96,0.0,0.0,86,0.00,,,0.00,Wunderground v.1.15,2013-07-13 12:44:00,
2013-07-13 05:50:00,55.7,51.6,29.88,East,96,0.0,0.0,86,0.00,,,0.00,Wunderground v.1.15,2013-07-13 12:50:00,
2013-07-13 05:55:00,55.7,51.6,29.88,East,96,0.0,0.0,86,0.00,,,0.00,Wunderground v.1.15,2013-07-13 12:55:00,
2013-07-13 06:00:00,55.6,51.5,29.88,East,96,0.0,0.0,86,0.00,,,0.00,Wunderground v.1.15,2013-07-13 13:00:00,
2013-07-13 06:10:00,55.4,51.3,29.89,East,96,0.0,0.0,86,0.00,,,0.00,Wunderground v.1.15,2013-07-13 13:10:00,
2013-07-13 06:20:00,55.3,51.2,29.89,East,96,0.0,0.0,86,0.00,,,0.00,Wunderground v.1.15,2013-07-13 13:20:00,
2013-07-13 06:30:00,54.8,50.4,29.89,East,96,0.0,0.0,85,0.00,,,0.00,Wunderground v.1.15,2013-07-13 13:30:00,
2013-07-13 06:35:00,54.6,50.8,29.89,East,96,0.0,0.0,87,0.00,,,0.00,Wunderground v.1.15,2013-07-13 13:35:00,
2013-07-13 06:44:00,54.9,51.4,29.89,East,96,0.0,0.0,88,0.00,,,0.00,Wunderground v.1.15,2013-07-13 13:44:00,
2013-07-13 06:50:00,55.2,51.7,29.89,East,96,0.0,0.0,88,0.00,,,0.00,Wunderground v.1.15,2013-07-13 13:50:00,
2013-07-13 06:55:00,55.7,52.2,29.89,East,96,0.0,0.0,88,0.00,,,0.00,Wunderground v.1.15,2013-07-13 13:55:00,
2013-07-13 07:05:00,57.2,53.0,29.90,East,96,0.0,0.0,86,0.00,,,0.00,Wunderground v.1.15,2013-07-13 14:05:00,
2013-07-13 07:15:00,59.0,53.5,29.90,East,96,0.0,0.0,82,0.00,,,0.00,Wunderground v.1.15,2013-07-13 14:15:00,
2013-07-13 07:20:00,59.9,53.7,29.90,East,96,0.0,0.0,80,0.00,,,0.00,Wunderground v.1.15,2013-07-13 14:20:00,
2013-07-13 07:30:00,61.4,53.4,29.90,East,96,0.0,1.0,75,0.00,,,0.00,Wunderground v.1.15,2013-07-13 14:30:00,
2013-07-13 07:40:00,61.9,53.5,29.91,WNW,289,0.0,0.0,74,0.00,,,0.00,Wunderground v.1.15,2013-07-13 14:40:00,
2013-07-13 07:50:00,62.1,53.0,29.91,SSW,199,1.0,1.0,72,0.00,,,0.00,Wunderground v.1.15,2013-07-13 14:50:00,
2013-07-13 08:00:00,62.6,53.4,29.91,West,275,0.0,0.0,72,0.00,,,0.00,Wunderground v.1.15,2013-07-13 15:00:00,
2013-07-13 08:10:00,62.9,53.0,29.91,South,191,2.0,2.0,70,0.00,,,0.00,Wunderground v.1.15,2013-07-13 15:10:00,
2013-07-13 08:20:00,63.4,53.0,29.91,SSW,192,1.0,3.0,69,0.00,,,0.00,Wunderground v.1.15,2013-07-13 15:20:00,
2013-07-13 08:30:00,65.0,52.9,29.91,SW,215,1.0,1.0,65,0.00,,,0.00,Wunderground v.1.15,2013-07-13 15:30:00,
2013-07-13 08:40:00,65.0,52.5,29.91,South,191,4.0,6.0,64,0.00,,,0.00,Wunderground v.1.15,2013-07-13 15:40:00,
2013-07-13 08:55:00,66.0,52.6,29.91,SSW,195,4.0,4.0,62,0.00,,,0.00,Wunderground v.1.15,2013-07-13 15:55:00,
2013-07-13 09:00:00,66.7,53.3,29.91,SSW,203,4.0,4.0,62,0.00,,,0.00,Wunderground v.1.15,2013-07-13 16:00:00,
2013-07-13 09:10:00,67.3,52.5,29.92,SW,221,5.0,5.0,59,0.00,,,0.00,Wunderground v.1.15,2013-07-13 16:10:00,
2013-07-13 09:19:00,68.7,52.8,29.92,SW,220,1.0,1.0,57,0.00,,,0.00,Wunderground v.1.15,2013-07-13 16:19:00,
2013-07-13 09:24:00,69.9,53.5,29.91,WNW,294,0.0,1.0,56,0.00,,,0.00,Wunderground v.1.15,2013-07-13 16:24:00,
2013-07-13 09:30:00,70.9,51.9,29.91,West,281,1.0,1.0,51,0.00,,,0.00,Wunderground v.1.15,2013-07-13 16:30:00,
2013-07-13 09:40:00,71.7,52.1,29.91,SSW,198,1.0,1.0,50,0.00,,,0.00,Wunderground v.1.15,2013-07-13 16:40:00,
2013-07-13 09:50:00,73.3,51.3,29.91,SSW,192,1.0,2.0,46,0.00,,,0.00,Wunderground v.1.15,2013-07-13 16:50:00,
2013-07-13 09:59:00,73.8,51.7,29.91,SSW,203,2.0,3.0,46,0.00,,,0.00,Wunderground v.1.15,2013-07-13 16:59:00,
2013-07-13 10:05:00,74.1,51.4,29.91,SSW,213,3.0,5.0,45,0.00,,,0.00,Wunderground v.1.15,2013-07-13 17:05:00,
2013-07-13 10:15:00,74.6,50.6,29.90,SSW,198,4.0,7.0,43,0.00,,,0.00,Wunderground v.1.15,2013-07-13 17:15:00,
2013-07-13 10:20:00,74.8,50.2,29.90,SSW,209,5.0,5.0,42,0.00,,,0.00,Wunderground v.1.15,2013-07-13 17:20:00,
2013-07-13 10:30:00,76.5,51.0,29.91,SSW,205,2.0,2.0,41,0.00,,,0.00,Wunderground v.1.15,2013-07-13 17:30:00,
2013-07-13 10:39:00,77.0,48.7,29.91,South,190,5.0,5.0,37,0.00,,,0.00,Wunderground v.1.15,2013-07-13 17:39:00,
2013-07-13 10:45:00,76.7,48.5,29.91,SSW,209,6.0,6.0,37,0.00,,,0.00,Wunderground v.1.15,2013-07-13 17:45:00,
2013-07-13 10:50:00,77.7,49.3,29.91,South,188,4.0,7.0,37,0.00,,,0.00,Wunderground v.1.15,2013-07-13 17:50:00,
2013-07-13 10:55:00,78.3,48.4,29.90,SSW,192,3.0,7.0,35,0.00,,,0.00,Wunderground v.1.15,2013-07-13 17:55:00,
2013-07-13 11:05:00,80.7,52.0,29.91,NW,308,1.0,2.0,37,0.00,,,0.00,Wunderground v.1.15,2013-07-13 18:05:00,
2013-07-13 11:15:00,82.8,53.1,29.91,NW,305,1.0,1.0,36,0.00,,,0.00,Wunderground v.1.15,2013-07-13 18:15:00,
2013-07-13 11:20:00,83.9,52.5,29.91,NW,315,2.0,2.0,34,0.00,,,0.00,Wunderground v.1.15,2013-07-13 18:20:00,
2013-07-13 11:30:00,84.9,53.4,29.91,NW,323,1.0,1.0,34,0.00,,,0.00,Wunderground v.1.15,2013-07-13 18:30:00,
2013-07-13 11:40:00,86.1,52.8,29.91,NW,311,2.0,2.0,32,0.00,,,0.00,Wunderground v.1.15,2013-07-13 18:40:00,
2013-07-13 11:45:00,86.9,51.7,29.91,NW,311,1.0,3.0,30,0.00,,,0.00,Wunderground v.1.15,2013-07-13 18:45:00,
2013-07-13 11:50:00,87.1,51.0,29.91,NW,323,1.0,1.0,29,0.00,,,0.00,Wunderground v.1.15,2013-07-13 18:50:00,
2013-07-13 12:00:00,86.5,52.3,29.91,NNW,328,2.0,5.0,31,0.00,,,0.00,Wunderground v.1.15,2013-07-13 19:00:00,
2013-07-13 12:05:00,87.0,52.7,29.91,NNW,333,2.0,5.0,31,0.00,,,0.00,Wunderground v.1.15,2013-07-13 19:05:00,
2013-07-13 12:10:00,87.3,52.1,29.91,NNW,329,3.0,3.0,30,0.00,,,0.00,Wunderground v.1.15,2013-07-13 19:10:00,
2013-07-13 12:15:00,87.4,51.2,29.90,NNW,343,4.0,7.0,29,0.00,,,0.00,Wunderground v.1.15,2013-07-13 19:15:00,
2013-07-13 12:25:00,86.9,51.7,29.90,North,355,5.0,10.0,30,0.00,,,0.00,Wunderground v.1.15,2013-07-13 19:25:00,
2013-07-13 12:35:00,86.2,52.0,29.90,North,11,5.0,8.0,31,0.00,,,0.00,Wunderground v.1.15,2013-07-13 19:35:00,
2013-07-13 12:45:00,87.5,51.3,29.90,North,349,3.0,3.0,29,0.00,,,0.00,Wunderground v.1.15,2013-07-13 19:45:00,
2013-07-13 12:50:00,87.9,51.7,29.90,North,355,2.0,2.0,29,0.00,,,0.00,Wunderground v.1.15,2013-07-13 19:50:00,
2013-07-13 12:59:00,87.8,49.7,29.90,North,355,3.0,6.0,27,0.00,,,0.00,Wunderground v.1.15,2013-07-13 19:59:00,
2013-07-13 13:10:00,87.2,43.7,29.90,South,171,4.0,6.0,22,0.00,,,0.00,Wunderground v.1.15,2013-07-13 20:10:00,
2013-07-13 13:20:00,87.3,50.2,29.90,NE,50,3.0,6.0,28,0.00,,,0.00,Wunderground v.1.15,2013-07-13 20:20:00,
2013-07-13 13:30:00,88.1,49.9,29.90,ESE,102,2.0,2.0,27,0.00,,,0.00,Wunderground v.1.15,2013-07-13 20:30:00,
2013-07-13 13:35:00,87.7,50.6,29.90,South,190,1.0,2.0,28,0.00,,,0.00,Wunderground v.1.15,2013-07-13 20:35:00,
2013-07-13 13:45:00,89.0,48.6,29.90,NE,50,1.0,5.0,25,0.00,,,0.00,Wunderground v.1.15,2013-07-13 20:45:00,
2013-07-13 14:00:00,90.3,43.8,29.89,NW,305,2.0,3.0,20,0.00,,,0.00,Wunderground v.1.15,2013-07-13 21:00:00,
2013-07-13 14:05:00,89.7,42.0,29.89,SSW,211,3.0,3.0,19,0.00,,,0.00,Wunderground v.1.15,2013-07-13 21:05:00,
2013-07-13 14:15:00,88.2,40.7,29.89,SW,217,5.0,5.0,19,0.00,,,0.00,Wunderground v.1.15,2013-07-13 21:15:00,
2013-07-13 14:25:00,88.7,41.1,29.89,SSW,213,5.0,10.0,19,0.00,,,0.00,Wunderground v.1.15,2013-07-13 21:25:00,
2013-07-13 14:30:00,88.1,42.0,29.89,SSW,202,8.0,10.0,20,0.00,,,0.00,Wunderground v.1.15,2013-07-13 21:30:00,
2013-07-13 14:40:00,87.8,44.2,29.89,SSW,201,8.0,10.0,22,0.00,,,0.00,Wunderground v.1.15,2013-07-13 21:40:00,
2013-07-13 14:45:00,88.1,43.2,29.89,SSW,209,8.0,10.0,21,0.00,,,0.00,Wunderground v.1.15,2013-07-13 21:45:00,
2013-07-13 14:55:00,88.5,43.6,29.89,SW,217,7.0,8.0,21,0.00,,,0.00,Wunderground v.1.15,2013-07-13 21:55:00,
2013-07-13 15:00:00,88.6,43.7,29.89,SSW,211,7.0,7.0,21,0.00,,,0.00,Wunderground v.1.15,2013-07-13 22:00:00,
2013-07-13 15:05:00,88.1,43.2,29.89,SSW,208,7.0,8.0,21,0.00,,,0.00,Wunderground v.1.15,2013-07-13 22:05:00,
2013-07-13 15:10:00,87.8,44.2,29.88,South,189,8.0,8.0,22,0.00,,,0.00,Wunderground v.1.15,2013-07-13 22:10:00,
2013-07-13 15:20:00,88.7,43.7,29.88,SW,215,7.0,8.0,21,0.00,,,0.00,Wunderground v.1.15,2013-07-13 22:20:00,
2013-07-13 15:30:00,88.7,42.5,29.88,South,180,8.0,9.0,20,0.00,,,0.00,Wunderground v.1.15,2013-07-13 22:30:00,
2013-07-13 15:35:00,89.2,42.9,29.88,SW,221,7.0,9.0,20,0.00,,,0.00,Wunderground v.1.15,2013-07-13 22:35:00,
2013-07-13 15:45:00,89.0,42.7,29.87,SSW,201,6.0,10.0,20,0.00,,,0.00,Wunderground v.1.15,2013-07-13 22:45:00,
2013-07-13 16:00:00,89.7,44.6,29.87,SSW,208,5.0,5.0,21,0.00,,,0.00,Wunderground v.1.15,2013-07-13 23:00:00,
2013-07-13 16:05:00,89.7,44.6,29.87,SSW,205,5.0,10.0,21,0.00,,,0.00,Wunderground v.1.15,2013-07-13 23:05:00,
2013-07-13 16:14:00,89.7,43.3,29.86,SSW,213,5.0,10.0,20,0.00,,,0.00,Wunderground v.1.15,2013-07-13 23:14:00,
2013-07-13 16:20:00,89.1,42.8,29.87,SW,219,7.0,7.0,20,0.00,,,0.00,Wunderground v.1.15,2013-07-13 23:20:00,
2013-07-13 16:25:00,88.9,43.9,29.87,SSW,196,6.0,7.0,21,0.00,,,0.00,Wunderground v.1.15,2013-07-13 23:25:00,
2013-07-13 16:35:00,89.0,42.7,29.86,WNW,284,6.0,9.0,20,0.00,,,0.00,Wunderground v.1.15,2013-07-13 23:35:00,
2013-07-13 16:45:00,90.0,42.2,29.86,SSW,202,3.0,4.0,19,0.00,,,0.00,Wunderground v.1.15,2013-07-13 23:45:00,
2013-07-13 16:55:00,90.5,42.6,29.86,NNW,327,2.0,4.0,19,0.00,,,0.00,Wunderground v.1.15,2013-07-13 23:55:00,
2013-07-13 17:05:00,92.1,41.0,29.86,WNW,302,2.0,5.0,17,0.00,,,0.00,Wunderground v.1.15,2013-07-14 00:05:00,
2013-07-13 17:15:00,92.7,43.0,29.86,NW,315,2.0,2.0,18,0.00,,,0.00,Wunderground v.1.15,2013-07-14 00:15:00,
2013-07-13 17:20:00,92.9,40.1,29.86,WNW,282,1.0,5.0,16,0.00,,,0.00,Wunderground v.1.15,2013-07-14 00:20:00,
2013-07-13 17:35:00,91.8,42.3,29.86,NNW,328,3.0,3.0,18,0.00,,,0.00,Wunderground v.1.15,2013-07-14 00:35:00,
2013-07-13 17:40:00,91.3,43.3,29.86,NNW,329,3.0,5.0,19,0.00,,,0.00,Wunderground v.1.15,2013-07-14 00:40:00,
2013-07-13 17:50:00,91.2,43.2,29.86,North,9,1.0,2.0,19,0.00,,,0.00,Wunderground v.1.15,2013-07-14 00:50:00,
2013-07-13 18:05:00,90.5,42.6,29.86,NW,324,2.0,2.0,19,0.00,,,0.00,Wunderground v.1.15,2013-07-14 01:05:00,
2013-07-13 18:10:00,90.6,42.7,29.85,NNW,331,1.0,1.0,19,0.00,,,0.00,Wunderground v.1.15,2013-07-14 01:10:00,
2013-07-13 18:20:00,90.6,44.0,29.86,NW,308,2.0,2.0,20,0.00,,,0.00,Wunderground v.1.15,2013-07-14 01:20:00,
2013-07-13 18:25:00,89.8,45.9,29.86,North,5,3.0,3.0,22,0.00,,,0.00,Wunderground v.1.15,2013-07-14 01:25:00,
2013-07-13 18:30:00,89.3,45.5,29.85,North,5,2.0,5.0,22,0.00,,,0.00,Wunderground v.1.15,2013-07-14 01:30:00,
2013-07-13 18:45:00,87.9,45.5,29.86,NW,320,2.0,4.0,23,0.00,,,0.00,Wunderground v.1.15,2013-07-14 01:45:00,
2013-07-13 18:50:00,87.3,46.1,29.86,NW,319,2.0,2.0,24,0.00,,,0.00,Wunderground v.1.15,2013-07-14 01:50:00,
2013-07-13 19:00:00,86.0,46.1,29.86,WNW,296,1.0,1.0,25,0.00,,,0.00,Wunderground v.1.15,2013-07-14 02:00:00,
2013-07-13 19:10:00,83.0,46.5,29.86,SW,216,1.0,1.0,28,0.00,,,0.00,Wunderground v.1.15,2013-07-14 02:10:00,
2013-07-13 19:20:00,81.1,46.7,29.86,SW,219,2.0,5.0,30,0.00,,,0.00,Wunderground v.1.15,2013-07-14 02:20:00,
2013-07-13 19:25:00,80.4,47.0,29.87,SSW,208,3.0,6.0,31,0.00,,,0.00,Wunderground v.1.15,2013-07-14 02:25:00,
2013-07-13 19:30:00,79.7,47.2,29.87,SSW,211,5.0,5.0,32,0.00,,,0.00,Wunderground v.1.15,2013-07-14 02:30:00,
2013-07-13 19:40:00,78.3,47.6,29.87,SSW,210,4.0,7.0,34,0.00,,,0.00,Wunderground v.1.15,2013-07-14 02:40:00,
2013-07-13 19:45:00,77.6,48.5,29.87,SW,215,5.0,7.0,36,0.00,,,0.00,Wunderground v.1.15,2013-07-14 02:45:00,
2013-07-13 19:50:00,77.0,48.7,29.87,SW,220,4.0,7.0,37,0.00,,,0.00,Wunderground v.1.15,2013-07-14 02:50:00,
2013-07-13 19:55:00,76.0,49.2,29.87,SW,219,4.0,7.0,39,0.00,,,0.00,Wunderground v.1.15,2013-07-14 02:55:00,
2013-07-13 20:00:00,75.3,48.6,29.87,SW,218,5.0,5.0,39,0.00,,,0.00,Wunderground v.1.15,2013-07-14 03:00:00,
2013-07-13 20:10:00,74.9,48.3,29.88,SW,217,2.0,2.0,39,0.00,,,0.00,Wunderground v.1.15,2013-07-14 03:10:00,
2013-07-13 20:15:00,74.5,47.9,29.88,SW,217,1.0,2.0,39,0.00,,,0.00,Wunderground v.1.15,2013-07-14 03:15:00,
2013-07-13 20:20:00,73.9,47.4,29.88,SSW,202,2.0,3.0,39,0.00,,,0.00,Wunderground v.1.15,2013-07-14 03:20:00,
2013-07-13 20:29:00,73.1,47.3,29.88,SSW,201,1.0,1.0,40,0.00,,,0.00,Wunderground v.1.15,2013-07-14 03:29:00,
2013-07-13 20:35:00,73.0,46.6,29.88,SSW,201,0.0,1.0,39,0.00,,,0.00,Wunderground v.1.15,2013-07-14 03:35:00,
2013-07-13 20:44:00,72.8,45.7,29.89,SW,229,0.0,0.0,38,0.00,,,0.00,Wunderground v.1.15,2013-07-14 03:44:00,
2013-07-13 20:50:00,72.5,45.4,29.89,SW,229,0.0,0.0,38,0.00,,,0.00,Wunderground v.1.15,2013-07-14 03:50:00,
2013-07-13 21:00:00,71.9,45.6,29.89,SW,229,0.0,2.0,39,0.00,,,0.00,Wunderground v.1.15,2013-07-14 04:00:00,
2013-07-13 21:05:00,71.4,45.1,29.89,SW,229,0.0,2.0,39,0.00,,,0.00,Wunderground v.1.15,2013-07-14 04:05:00,
2013-07-13 21:10:00,70.4,44.9,29.89,SW,228,0.0,1.0,40,0.00,,,0.00,Wunderground v.1.15,2013-07-14 04:10:00,
2013-07-13 21:15:00,69.7,45.6,29.89,SW,228,0.0,1.0,42,0.00,,,0.00,Wunderground v.1.15,2013-07-14 04:15:00,
2013-07-13 21:20:00,69.5,46.0,29.90,SW,228,1.0,1.0,43,0.00,,,0.00,Wunderground v.1.15,2013-07-14 04:20:00,
2013-07-13 21:25:00,69.3,47.0,29.90,SW,219,1.0,2.0,45,0.00,,,0.00,Wunderground v.1.15,2013-07-14 04:25:00,
2013-07-13 21:40:00,69.4,47.1,29.91,SW,217,1.0,1.0,45,0.00,,,0.00,Wunderground v.1.15,2013-07-14 04:40:00,
2013-07-13 21:50:00,68.7,45.3,29.91,SW,217,0.0,0.0,43,0.00,,,0.00,Wunderground v.1.15,2013-07-14 04:50:00,
2013-07-13 21:55:00,68.0,45.3,29.91,SW,217,0.0,0.0,44,0.00,,,0.00,Wunderground v.1.15,2013-07-14 04:55:00,
2013-07-13 22:05:00,67.2,45.1,29.91,SW,217,0.0,0.0,45,0.00,,,0.00,Wunderground v.1.15,2013-07-14 05:05:00,
2013-07-13 22:14:00,67.5,44.8,29.92,SW,217,0.0,0.0,44,0.00,,,0.00,Wunderground v.1.15,2013-07-14 05:14:00,
2013-07-13 22:20:00,67.3,44.6,29.92,SW,217,0.0,0.0,44,0.00,,,0.00,Wunderground v.1.15,2013-07-14 05:20:00,
2013-07-13 22:30:00,66.5,43.3,29.92,SW,217,0.0,1.0,43,0.00,,,0.00,Wunderground v.1.15,2013-07-14 05:30:00,
2013-07-13 22:35:00,66.5,42.7,29.92,SW,217,0.0,1.0,42,0.00,,,0.00,Wunderground v.1.15,2013-07-14 05:35:00,
2013-07-13 22:45:00,66.8,41.0,29.92,SW,217,0.0,1.0,39,0.00,,,0.00,Wunderground v.1.15,2013-07-14 05:45:00,
2013-07-13 22:50:00,67.2,41.4,29.92,SW,217,1.0,1.0,39,0.00,,,0.00,Wunderground v.1.15,2013-07-14 05:50:00,
2013-07-13 22:55:00,67.2,41.4,29.92,SW,217,1.0,1.0,39,0.00,,,0.00,Wunderground v.1.15,2013-07-14 05:55:00,
2013-07-13 23:04:00,66.9,42.4,29.92,SW,217,0.0,0.0,41,0.00,,,0.00,Wunderground v.1.15,2013-07-14 06:04:00,
2013-07-13 23:10:00,66.8,41.7,29.92,SW,217,0.0,0.0,40,0.00,,,0.00,Wunderground v.1.15,2013-07-14 06:10:00,
2013-07-13 23:20:00,66.9,42.4,29.92,SW,228,0.0,3.0,41,0.00,,,0.00,Wunderground v.1.15,2013-07-14 06:20:00,
2013-07-13 23:30:00,67.2,42.7,29.92,SSW,207,4.0,6.0,41,0.00,,,0.00,Wunderground v.1.15,2013-07-14 06:30:00,
2013-07-13 23:40:00,67.4,43.5,29.92,SW,215,1.0,1.0,42,0.00,,,0.00,Wunderground v.1.15,2013-07-14 06:40:00,
2013-07-13 23:45:00,67.0,44.4,29.92,SW,215,0.0,1.0,44,0.00,,,0.00,Wunderground v.1.15,2013-07-14 06:45:00,
2013-07-13 23:55:00,65.8,45.0,29.92,WSW,252,0.0,0.0,47,0.00,,,0.00,Wunderground v.1.15,2013-07-14 06:55:00,